Time;durP1;ratioP1;P1;durP2;ratioP2;P2;SDS_P1;SDS_P2;PMS_P1;PMS_P2;Temp;Humidity;BMP_temperature;BMP_pressure;BME280_temperature;BME280_humidity;BME280_pressure;Samples;Min_cycle;Max_cycle;Signal;HPM_P1;HPM_P2
2021/07/28 00:00:46;;;;;;;10.55;4.43;;;16.30;99.90;;;;;;20877363;28;20051;-50
2021/07/28 00:10:48;;;;;;;12.70;5.30;;;16.30;99.90;;;;;;20870260;28;20535;-49
2021/07/28 00:31:09;;;;;;;9.77;3.67;;;16.10;99.90;;;;;;20873146;28;20049;-49
2021/07/28 00:41:14;;;;;;;11.52;4.13;;;16.20;99.90;;;;;;20874552;28;20649;-49
2021/07/28 00:51:16;;;;;;;10.40;3.85;;;16.20;99.90;;;;;;20873246;28;20532;-49
2021/07/28 01:01:17;;;;;;;10.77;4.15;;;16.20;99.90;;;;;;20846958;28;20041;-49
2021/07/28 01:11:24;;;;;;;8.48;3.42;;;16.10;99.90;;;;;;20870762;28;20581;-50
2021/07/28 01:21:25;;;;;;;10.90;4.47;;;16.10;99.90;;;;;;20871471;28;20480;-50
2021/07/28 01:31:26;;;;;;;13.18;5.00;;;16.00;99.90;;;;;;20868965;28;20144;-49
2021/07/28 01:41:27;;;;;;;12.25;3.97;;;16.10;99.90;;;;;;20868085;28;20734;-49
2021/07/28 01:51:28;;;;;;;7.65;3.70;;;16.00;99.90;;;;;;20867079;28;20091;-49
2021/07/28 02:01:29;;;;;;;12.02;4.97;;;16.00;99.90;;;;;;20861198;28;20813;-49
2021/07/28 02:11:31;;;;;;;11.70;3.85;;;16.00;99.90;;;;;;20869203;28;20578;-49
2021/07/28 02:21:33;;;;;;;10.10;3.70;;;16.20;99.90;;;;;;20865510;28;20496;-49
2021/07/28 02:31:34;;;;;;;12.10;4.88;;;16.20;99.90;;;;;;20865018;28;20492;-49
2021/07/28 02:41:35;;;;;;;7.95;3.42;;;16.20;99.90;;;;;;20865135;28;20524;-49
2021/07/28 02:51:37;;;;;;;11.88;4.75;;;16.20;99.90;;;;;;20867898;28;20503;-49
2021/07/28 03:01:38;;;;;;;9.38;4.00;;;16.20;99.90;;;;;;20864992;28;20566;-49
2021/07/28 03:11:40;;;;;;;11.38;3.97;;;16.30;99.90;;;;;;20865173;28;20571;-49
2021/07/28 03:21:41;;;;;;;13.55;4.07;;;16.40;99.90;;;;;;20867474;28;20041;-49
2021/07/28 03:31:42;;;;;;;11.88;3.45;;;16.40;99.90;;;;;;20873717;28;20045;-49
2021/07/28 03:41:43;;;;;;;14.90;5.97;;;16.40;99.90;;;;;;20882156;28;20515;-49
2021/07/28 03:51:44;;;;;;;14.70;6.05;;;16.40;99.90;;;;;;20879552;28;20627;-49
2021/07/28 04:01:45;;;;;;;14.32;5.43;;;16.50;99.90;;;;;;20880324;28;20400;-49
2021/07/28 04:11:47;;;;;;;15.20;4.53;;;16.50;99.90;;;;;;20879357;28;20508;-49
2021/07/28 04:21:48;;;;;;;12.55;4.70;;;16.50;99.90;;;;;;20876502;28;20501;-49
2021/07/28 04:31:49;;;;;;;15.63;5.10;;;16.40;99.90;;;;;;20871535;28;20504;-49
2021/07/28 04:41:50;;;;;;;13.18;5.07;;;16.50;99.90;;;;;;20871061;28;20665;-49
2021/07/28 04:51:51;;;;;;;16.35;5.13;;;16.50;99.90;;;;;;20870197;28;20582;-49
2021/07/28 05:01:54;;;;;;;14.68;6.50;;;16.50;99.90;;;;;;20868823;28;20580;-49
2021/07/28 05:11:56;;;;;;;15.98;5.57;;;16.50;99.90;;;;;;20867947;28;20544;-49
2021/07/28 05:21:57;;;;;;;13.35;5.95;;;16.80;99.90;;;;;;20870068;28;20561;-49
2021/07/28 05:31:58;;;;;;;13.68;5.03;;;16.90;99.90;;;;;;20868651;28;20049;-49
2021/07/28 05:42:00;;;;;;;9.98;4.57;;;17.00;99.90;;;;;;20868867;28;20524;-49
2021/07/28 05:52:01;;;;;;;10.45;4.85;;;17.10;99.90;;;;;;20868705;28;20483;-49
2021/07/28 06:02:03;;;;;;;11.98;4.00;;;17.30;99.90;;;;;;20870088;28;20496;-49
2021/07/28 06:12:05;;;;;;;12.68;3.90;;;17.50;99.90;;;;;;20860931;28;20477;-49
2021/07/28 06:22:06;;;;;;;10.80;3.65;;;17.50;99.90;;;;;;20868752;28;20631;-49
2021/07/28 06:32:07;;;;;;;14.75;4.05;;;17.60;99.90;;;;;;20870118;28;20488;-49
2021/07/28 06:42:08;;;;;;;7.10;3.25;;;17.60;99.90;;;;;;20867874;28;20477;-49
2021/07/28 06:52:09;;;;;;;6.72;2.97;;;17.90;99.90;;;;;;20865896;28;20484;-50
2021/07/28 07:02:10;;;;;;;6.35;2.60;;;17.90;99.90;;;;;;20863469;28;20488;-49
2021/07/28 07:12:12;;;;;;;8.75;3.88;;;18.20;99.90;;;;;;20861727;28;20560;-50
2021/07/28 07:22:13;;;;;;;7.63;2.80;;;18.40;99.90;;;;;;20864976;28;20690;-49
2021/07/28 07:32:22;;;;;;;7.57;2.70;;;18.40;99.90;;;;;;20866972;28;20690;-50
2021/07/28 07:42:24;;;;;;;6.82;2.38;;;18.20;99.90;;;;;;20852966;28;20041;-50
2021/07/28 07:52:25;;;;;;;4.80;2.15;;;18.50;99.90;;;;;;20857972;28;20566;-50
2021/07/28 08:02:27;;;;;;;5.50;2.03;;;18.80;99.90;;;;;;20858725;28;20512;-50
2021/07/28 08:12:28;;;;;;;4.65;2.05;;;18.80;99.90;;;;;;20861533;28;20818;-50
2021/07/28 08:22:30;;;;;;;3.33;1.38;;;18.90;99.90;;;;;;20874835;28;20560;-50
2021/07/28 08:32:31;;;;;;;4.25;1.80;;;18.70;99.90;;;;;;20874154;28;20574;-50
2021/07/28 08:42:33;;;;;;;3.55;1.60;;;18.60;99.90;;;;;;20872998;28;20441;-50
2021/07/28 08:52:35;;;;;;;4.68;1.80;;;18.70;99.90;;;;;;20874839;28;20048;-50
2021/07/28 09:02:38;;;;;;;6.15;1.85;;;18.80;99.90;;;;;;20871490;28;20043;-49
2021/07/28 09:12:42;;;;;;;10.85;3.92;;;18.70;99.90;;;;;;20868139;28;20473;-50
2021/07/28 09:22:43;;;;;;;6.13;1.83;;;18.60;99.90;;;;;;20871355;28;20041;-50
2021/07/28 09:33:12;;;;;;;4.65;1.48;;;18.50;99.90;;;;;;20869570;28;20546;-49
2021/07/28 09:43:13;;;;;;;3.95;2.03;;;18.60;99.90;;;;;;20869455;28;20544;-49
2021/07/28 09:53:15;;;;;;;3.80;1.88;;;19.30;99.90;;;;;;20868571;28;20041;-50
2021/07/28 10:03:16;;;;;;;3.72;1.73;;;19.70;99.90;;;;;;20868032;28;20489;-50
2021/07/28 10:13:18;;;;;;;5.90;2.00;;;19.90;99.90;;;;;;20867792;28;20444;-50
2021/07/28 10:23:19;;;;;;;4.10;1.70;;;19.80;99.90;;;;;;20867321;28;20444;-50
2021/07/28 10:33:27;;;;;;;4.28;1.77;;;20.00;99.90;;;;;;20870441;28;20047;-50
2021/07/28 10:43:28;;;;;;;;;;;20.00;99.90;;;;;;20869069;28;20484;-49
2021/07/28 10:53:48;;;;;;;3.47;1.38;;;20.50;99.90;;;;;;20865565;28;19931;-49
2021/07/28 11:03:49;;;;;;;3.22;1.70;;;20.30;99.90;;;;;;20849268;28;20647;-49
2021/07/28 11:13:51;;;;;;;4.18;1.63;;;20.70;99.90;;;;;;20867859;28;20059;-49
2021/07/28 11:24:00;;;;;;;2.67;1.00;;;20.90;99.90;;;;;;20867351;28;20049;-49
2021/07/28 11:34:10;;;;;;;4.28;1.00;;;20.60;99.90;;;;;;20862243;28;20595;-48
2021/07/28 11:44:12;;;;;;;4.07;1.35;;;21.00;99.90;;;;;;20866185;28;20501;-48
2021/07/28 11:54:18;;;;;;;3.20;1.38;;;21.10;99.90;;;;;;20877038;28;20640;-47
2021/07/28 12:04:28;;;;;;;3.03;1.45;;;20.90;99.90;;;;;;20881972;28;20049;-49
2021/07/28 12:14:38;;;;;;;4.78;1.52;;;21.10;99.90;;;;;;20881363;28;20503;-49
2021/07/28 12:24:50;;;;;;;2.75;1.27;;;21.20;99.90;;;;;;20879226;28;20480;-49
2021/07/28 12:34:52;;;;;;;2.33;1.02;;;21.00;99.90;;;;;;20876943;28;20504;-49
2021/07/28 12:44:53;;;;;;;4.13;1.50;;;20.50;99.90;;;;;;20877184;28;20584;-49
2021/07/28 12:54:55;;;;;;;11.38;2.10;;;20.20;99.90;;;;;;20873553;28;20049;-50
2021/07/28 13:04:57;;;;;;;2.40;1.05;;;19.90;99.90;;;;;;20874906;28;20500;-50
2021/07/28 13:14:58;;;;;;;8.40;1.40;;;20.30;99.90;;;;;;20874283;28;20507;-49
2021/07/28 13:25:00;;;;;;;3.22;1.25;;;20.30;99.90;;;;;;20875050;28;20052;-49
2021/07/28 13:35:01;;;;;;;2.78;1.17;;;20.50;99.90;;;;;;20867900;28;20045;-50
2021/07/28 13:45:03;;;;;;;4.13;1.25;;;21.20;99.90;;;;;;20868550;28;20059;-49
2021/07/28 13:55:04;;;;;;;3.20;1.40;;;21.50;99.90;;;;;;20870349;28;20504;-49
2021/07/28 14:05:06;;;;;;;2.72;0.95;;;20.90;99.90;;;;;;20871579;28;20025;-49
2021/07/28 14:15:08;;;;;;;2.90;0.80;;;20.00;99.90;;;;;;20867945;28;20616;-49
2021/07/28 14:25:10;;;;;;;3.17;1.35;;;18.70;99.90;;;;;;20867847;28;20679;-49
2021/07/28 14:35:11;;;;;;;4.50;1.27;;;18.30;99.90;;;;;;20866398;28;20478;-51
2021/07/28 14:45:13;;;;;;;5.03;1.67;;;18.20;99.90;;;;;;20866744;28;20051;-49
2021/07/28 14:55:14;;;;;;;2.60;1.58;;;18.30;99.90;;;;;;20868517;28;20076;-49
2021/07/28 15:05:15;;;;;;;3.90;1.15;;;18.50;99.90;;;;;;20869256;28;20574;-49
2021/07/28 15:15:16;;;;;;;3.88;1.10;;;18.60;99.90;;;;;;20866935;28;20044;-50
2021/07/28 15:25:18;;;;;;;2.35;1.10;;;18.60;99.90;;;;;;20872578;28;20141;-50
2021/07/28 15:35:19;;;;;;;4.93;1.33;;;18.80;99.90;;;;;;20883215;28;20041;-49
2021/07/28 15:45:20;;;;;;;1.70;0.80;;;19.00;99.90;;;;;;20883361;28;20042;-50
2021/07/28 15:55:23;;;;;;;1.90;0.52;;;19.50;99.90;;;;;;20860143;28;20127;-50
2021/07/28 16:05:25;;;;;;;2.95;0.55;;;19.80;99.90;;;;;;20860384;28;20318;-50
2021/07/28 16:15:30;;;;;;;3.72;1.23;;;20.40;99.90;;;;;;20870090;28;20099;-49
2021/07/28 16:25:39;;;;;;;5.60;1.50;;;20.20;99.90;;;;;;20874276;28;20057;-50
2021/07/28 16:35:42;;;;;;;2.65;0.90;;;19.90;99.90;;;;;;20877388;28;20037;-49
2021/07/28 16:45:47;;;;;;;2.13;0.73;;;19.90;99.90;;;;;;20861841;28;20051;-51
2021/07/28 16:55:48;;;;;;;5.85;1.50;;;19.60;99.90;;;;;;20840477;28;20090;-49
2021/07/28 17:05:50;;;;;;;2.95;0.65;;;19.50;99.90;;;;;;20854733;28;20045;-49
2021/07/28 17:15:51;;;;;;;3.78;0.88;;;19.70;99.90;;;;;;20857263;28;20558;-49
2021/07/28 17:25:52;;;;;;;4.10;1.65;;;19.80;99.90;;;;;;20847783;28;20067;-49
2021/07/28 17:35:54;;;;;;;2.47;1.00;;;19.90;99.90;;;;;;20835618;28;20320;-49
2021/07/28 17:45:56;;;;;;;4.93;0.68;;;19.80;99.90;;;;;;20850385;28;20044;-49
2021/07/28 17:55:59;;;;;;;0.85;0.35;;;19.70;99.90;;;;;;20859705;28;20048;-50
2021/07/28 18:06:19;;;;;;;1.90;0.47;;;19.60;99.90;;;;;;20855170;28;20571;-50
2021/07/28 18:16:21;;;;;;;3.13;0.68;;;18.70;99.90;;;;;;20859840;28;20045;-50
2021/07/28 18:26:22;;;;;;;2.72;0.95;;;18.00;99.90;;;;;;20863185;28;20080;-50
2021/07/28 18:36:23;;;;;;;2.95;0.68;;;18.00;99.90;;;;;;20854526;28;20053;-50
2021/07/28 18:46:25;;;;;;;5.88;0.82;;;18.00;99.90;;;;;;20845485;28;20052;-50
2021/07/28 18:56:27;;;;;;;2.88;0.60;;;18.10;99.90;;;;;;20842994;28;20167;-50
2021/07/28 19:06:28;;;;;;;1.30;0.50;;;18.20;99.90;;;;;;20830945;28;20036;-50
2021/07/28 19:16:30;;;;;;;1.80;0.68;;;18.30;99.90;;;;;;20848890;28;20063;-50
2021/07/28 19:26:31;;;;;;;4.07;0.50;;;18.30;99.90;;;;;;20853449;28;20080;-50
2021/07/28 19:36:35;;;;;;;2.13;0.75;;;17.90;99.90;;;;;;20857296;28;20051;-50
2021/07/28 19:46:40;;;;;;;1.67;1.00;;;18.10;99.90;;;;;;20856317;28;20045;-50
2021/07/28 19:56:41;;;;;;;3.70;0.50;;;18.10;99.90;;;;;;20842400;28;20049;-49
2021/07/28 20:06:43;;;;;;;0.85;0.40;;;18.10;99.90;;;;;;20856328;28;20055;-50
2021/07/28 20:16:44;;;;;;;2.63;0.38;;;18.10;99.90;;;;;;20866219;28;20167;-50
2021/07/28 20:26:46;;;;;;;1.05;0.22;;;18.00;99.90;;;;;;20871789;28;20052;-49
2021/07/28 20:36:47;;;;;;;1.10;0.40;;;17.90;99.90;;;;;;20862950;28;20044;-49
2021/07/28 20:46:48;;;;;;;2.30;0.63;;;17.70;99.90;;;;;;20858516;28;20044;-49
2021/07/28 20:56:49;;;;;;;0.85;0.45;;;17.50;99.90;;;;;;20862325;28;20033;-49
2021/07/28 21:06:51;;;;;;;2.63;0.80;;;17.30;99.90;;;;;;20857173;28;20473;-49
2021/07/28 21:16:52;;;;;;;1.10;0.35;;;17.10;99.90;;;;;;20855039;28;20045;-49
2021/07/28 21:26:57;;;;;;;3.80;0.52;;;17.10;99.90;;;;;;20859282;28;20037;-51
2021/07/28 21:36:58;;;;;;;2.75;0.47;;;17.20;99.90;;;;;;20865958;28;20041;-51
2021/07/28 21:47:01;;;;;;;1.90;0.70;;;17.30;99.90;;;;;;20864672;28;20328;-51
2021/07/28 21:57:09;;;;;;;1.23;0.40;;;17.40;99.90;;;;;;20862284;28;20049;-51
2021/07/28 22:07:11;;;;;;;2.38;0.85;;;17.30;99.90;;;;;;20857848;28;20047;-51
2021/07/28 22:17:13;;;;;;;1.15;0.50;;;17.20;99.90;;;;;;20860179;28;20068;-51
2021/07/28 22:27:14;;;;;;;2.13;0.55;;;17.20;99.90;;;;;;20859988;28;20037;-49
2021/07/28 22:37:16;;;;;;;3.10;0.60;;;17.10;99.90;;;;;;20857797;28;20130;-49
2021/07/28 22:57:44;;;;;;;1.98;0.50;;;17.10;99.90;;;;;;20856642;28;20049;-51
2021/07/28 23:07:46;;;;;;;3.30;0.65;;;17.20;99.90;;;;;;20863545;28;20415;-51
2021/07/28 23:17:47;;;;;;;2.65;0.60;;;17.20;99.90;;;;;;20860557;28;20061;-51
2021/07/28 23:27:49;;;;;;;1.52;0.50;;;17.10;99.90;;;;;;20862472;28;20037;-50
2021/07/28 23:37:50;;;;;;;6.90;0.73;;;17.00;99.90;;;;;;20861856;28;20126;-51
2021/07/28 23:47:51;;;;;;;3.00;0.70;;;16.90;99.90;;;;;;20867327;28;20052;-51
2021/07/28 23:57:52;;;;;;;4.85;1.23;;;17.00;99.90;;;;;;20877125;28;20114;-51
